Lincoln Heights, California
Current Conditions -  °F | °C
As of 6:47 AM on Thursday 30 Oct 2014 (Local Time) from KCQT Reporting Station
Clear Clear  
Wind Chill: 62°   Ceiling: Unl
Heat Index: 62°   Visibility: 10mi
Dew Point: 53°   Wind: 0mph
Humidity: 72%   Direction: NA
Pressure: 29.97"   Gusts: NA
Location:  34.0791°N, 118.208°W
Report Text: KCQT 301347Z AUTO 00000KT 10SM CLR 17/12 A2997 RMK AO2 SLP146 T01670117
Loading
Personal Weather Stations






























Interactive Weather Map
Tropical Storm Tracking
New forecast layout! Learn more

10-Day Weather Forecast

Advertisements
Track Severe Weather on mobile